createdAt,value
2022-10-09T00:00:50.511Z,102326.22
2022-10-09T00:03:17.922Z,102333.94
2022-10-09T00:05:45.187Z,102333.78
2022-10-09T00:08:11.951Z,102340.88
2022-10-09T00:10:42.956Z,102341.50
2022-10-09T00:13:09.977Z,102335.88
2022-10-09T00:15:40.929Z,102338.84
2022-10-09T00:18:09.537Z,102344.69
2022-10-09T00:20:38.093Z,102348.34
2022-10-09T00:23:04.976Z,102355.63
2022-10-09T00:25:31.825Z,102360.78
2022-10-09T00:27:59.417Z,102358.13
2022-10-09T00:30:26.296Z,102362.72
2022-10-09T00:32:53.376Z,102364.84
2022-10-09T00:35:20.345Z,102365.16
2022-10-09T00:37:46.960Z,102376.00
2022-10-09T00:40:13.301Z,102370.44
2022-10-09T00:42:40.276Z,102373.28
2022-10-09T00:45:14.722Z,102376.66
2022-10-09T00:47:48.222Z,102381.69
2022-10-09T00:50:22.563Z,102380.63
2022-10-09T00:52:52.360Z,102381.44
2022-10-09T00:55:19.783Z,102382.22
2022-10-09T00:57:46.329Z,102380.22
2022-10-09T01:00:13.558Z,102374.91
2022-10-09T01:02:40.374Z,102378.06
2022-10-09T01:05:08.424Z,102377.56
2022-10-09T01:08:03.308Z,102377.78
2022-10-09T01:10:50.139Z,102383.66
2022-10-09T01:14:02.074Z,102375.22
2022-10-09T01:16:33.124Z,102374.88
2022-10-09T01:19:11.162Z,102375.19
2022-10-09T01:21:58.035Z,102375.19
2022-10-09T01:24:38.833Z,102368.88
2022-10-09T01:27:14.137Z,102378.25
2022-10-09T01:29:45.759Z,102376.97
2022-10-09T01:32:17.240Z,102370.31
2022-10-09T01:34:44.462Z,102366.00
2022-10-09T01:37:13.229Z,102358.81
2022-10-09T01:39:41.285Z,102360.78
2022-10-09T01:42:08.660Z,102364.72
2022-10-09T01:44:35.066Z,102364.72
2022-10-09T01:47:02.333Z,102370.31
2022-10-09T01:49:43.888Z,102366.44
2022-10-09T01:52:58.078Z,102369.16
2022-10-09T01:55:43.384Z,102369.09
2022-10-09T01:58:28.581Z,102371.97
2022-10-09T02:01:04.676Z,102366.13
2022-10-09T02:03:33.013Z,102367.50
2022-10-09T02:06:01.370Z,102370.66
2022-10-09T02:08:30.747Z,102372.53
2022-10-09T02:11:01.534Z,102373.09
2022-10-09T02:13:29.049Z,102383.06
2022-10-09T02:16:11.364Z,102390.81
2022-10-09T02:18:45.802Z,102384.28
2022-10-09T02:21:25.924Z,102386.59
2022-10-09T02:23:54.857Z,102389.81
2022-10-09T02:26:21.470Z,102393.34
2022-10-09T02:28:47.939Z,102394.97
2022-10-09T02:31:26.952Z,102392.53
2022-10-09T02:34:02.239Z,102387.66
2022-10-09T02:36:30.195Z,102393.22
2022-10-09T02:38:57.202Z,102389.88
2022-10-09T02:41:24.552Z,102386.53
2022-10-09T02:43:51.527Z,102385.06
2022-10-09T02:46:18.538Z,102380.00
2022-10-09T02:48:45.174Z,102384.88
2022-10-09T02:51:11.561Z,102394.19
2022-10-09T02:53:38.277Z,102389.56
2022-10-09T02:56:04.972Z,102391.44
2022-10-09T02:58:33.072Z,102395.75
2022-10-09T03:00:59.392Z,102395.72
2022-10-09T03:03:26.232Z,102390.00
2022-10-09T03:06:24.717Z,102394.56
2022-10-09T03:08:52.930Z,102399.47
2022-10-09T03:11:21.105Z,102407.88
2022-10-09T03:13:47.782Z,102397.56
2022-10-09T03:16:20.365Z,102397.72
2022-10-09T03:18:48.655Z,102401.16
2022-10-09T03:21:18.459Z,102411.59
2022-10-09T03:23:45.049Z,102408.38
2022-10-09T03:26:14.535Z,102409.13
2022-10-09T03:28:44.544Z,102415.50
2022-10-09T03:31:22.375Z,102414.53
2022-10-09T03:33:57.694Z,102414.69
2022-10-09T03:36:24.409Z,102419.84
2022-10-09T03:38:50.979Z,102420.72
2022-10-09T03:41:17.325Z,102421.16
2022-10-09T03:43:43.680Z,102422.34
2022-10-09T03:46:10.984Z,102426.94
2022-10-09T03:48:38.131Z,102429.09
2022-10-09T03:51:04.559Z,102429.84
2022-10-09T03:53:31.341Z,102432.50
2022-10-09T03:55:57.707Z,102434.41
2022-10-09T03:58:24.324Z,102436.19
2022-10-09T04:00:52.389Z,102439.38
2022-10-09T04:03:19.416Z,102440.47
2022-10-09T04:05:46.073Z,102443.31
2022-10-09T04:08:12.748Z,102434.66
2022-10-09T04:10:39.111Z,102431.28
2022-10-09T04:13:05.750Z,102439.56
2022-10-09T04:15:32.155Z,102441.75
2022-10-09T04:17:58.669Z,102443.03
2022-10-09T04:20:25.008Z,102439.91
2022-10-09T04:22:51.643Z,102444.78
2022-10-09T04:25:18.115Z,102441.59
2022-10-09T04:27:44.871Z,102446.00
2022-10-09T04:30:11.517Z,102437.97
2022-10-09T04:32:37.882Z,102431.41
2022-10-09T04:35:05.023Z,102447.88
2022-10-09T04:37:31.440Z,102431.16
2022-10-09T04:39:57.746Z,102439.94
2022-10-09T04:42:24.098Z,102442.00
2022-10-09T04:44:50.432Z,102430.69
2022-10-09T04:47:17.684Z,102433.50
2022-10-09T04:49:44.032Z,102435.31
2022-10-09T04:52:10.411Z,102432.13
2022-10-09T04:54:36.738Z,102437.09
2022-10-09T04:57:03.370Z,102434.66
2022-10-09T04:59:29.704Z,102438.19
2022-10-09T05:01:56.180Z,102433.03
2022-10-09T05:04:22.563Z,102431.44
2022-10-09T05:06:49.080Z,102436.16
2022-10-09T05:09:15.416Z,102444.16
2022-10-09T05:11:42.807Z,102446.16
2022-10-09T05:14:10.430Z,102445.56
2022-10-09T05:16:49.673Z,102446.75
2022-10-09T05:19:23.378Z,102439.97
2022-10-09T05:21:49.890Z,102439.34
2022-10-09T05:24:16.206Z,102442.28
2022-10-09T05:26:42.650Z,102445.97
2022-10-09T05:29:09.010Z,102451.31
2022-10-09T05:31:35.591Z,102456.19
2022-10-09T05:34:02.046Z,102453.38
2022-10-09T05:36:28.721Z,102443.53
2022-10-09T05:38:56.351Z,102455.66
2022-10-09T05:41:22.996Z,102466.31
2022-10-09T05:43:49.807Z,102447.94
2022-10-09T05:46:24.782Z,102453.00
2022-10-09T05:48:53.880Z,102455.09
2022-10-09T05:51:25.842Z,102454.28
2022-10-09T05:53:52.803Z,102453.09
2022-10-09T05:56:30.883Z,102457.38
2022-10-09T05:58:59.717Z,102462.97
2022-10-09T06:01:28.820Z,102460.91
2022-10-09T06:03:57.019Z,102459.94
2022-10-09T06:06:27.065Z,102455.84
2022-10-09T06:08:53.833Z,102451.41
2022-10-09T06:11:23.134Z,102453.81
2022-10-09T06:13:50.082Z,102453.25
2022-10-09T06:16:17.618Z,102456.63
2022-10-09T06:18:49.712Z,102468.28
2022-10-09T06:21:16.645Z,102472.53
2022-10-09T06:23:43.170Z,102469.78
2022-10-09T06:26:12.891Z,102479.38
2022-10-09T06:28:39.941Z,102479.72
2022-10-09T06:31:14.844Z,102475.00
2022-10-09T06:33:42.737Z,102481.38
2022-10-09T06:36:11.343Z,102494.81
2022-10-09T06:38:38.876Z,102488.50
2022-10-09T06:41:08.451Z,102486.78
2022-10-09T06:43:35.104Z,102487.78
2022-10-09T06:46:07.199Z,102487.31
2022-10-09T06:48:35.288Z,102491.75
2022-10-09T06:51:14.004Z,102492.84
2022-10-09T06:53:42.799Z,102495.94
2022-10-09T06:56:10.616Z,102499.31
2022-10-09T06:58:38.182Z,102501.09
2022-10-09T07:01:13.592Z,102501.81
2022-10-09T07:03:42.122Z,102498.31
2022-10-09T07:06:15.919Z,102497.78
2022-10-09T07:08:45.236Z,102498.31
2022-10-09T07:11:14.609Z,102501.41
2022-10-09T07:13:42.351Z,102503.06
2022-10-09T07:16:10.745Z,102500.44
2022-10-09T07:18:38.488Z,102499.38
2022-10-09T07:21:08.359Z,102507.72
2022-10-09T07:23:35.992Z,102501.09
2022-10-09T07:26:08.778Z,102513.72
2022-10-09T07:28:35.374Z,102504.31
2022-10-09T07:31:05.838Z,102492.88
2022-10-09T07:33:32.244Z,102503.78
2022-10-09T07:36:00.658Z,102498.03
2022-10-09T07:38:27.507Z,102503.88
2022-10-09T07:40:54.522Z,102507.03
2022-10-09T07:43:22.259Z,102503.00
2022-10-09T07:45:48.674Z,102503.28
2022-10-09T07:48:15.196Z,102522.13
2022-10-09T07:50:41.853Z,102518.97
2022-10-09T07:53:08.737Z,102521.47
2022-10-09T07:55:35.861Z,102520.66
2022-10-09T07:58:02.275Z,102510.50
2022-10-09T08:00:28.675Z,102516.72
2022-10-09T08:02:55.312Z,102517.28
2022-10-09T08:05:21.696Z,102519.59
2022-10-09T08:07:48.007Z,102515.41
2022-10-09T08:10:14.359Z,102512.97
2022-10-09T08:12:40.753Z,102520.38
2022-10-09T08:15:07.630Z,102519.03
2022-10-09T08:17:34.004Z,102519.50
2022-10-09T08:20:00.912Z,102520.97
2022-10-09T08:22:27.227Z,102516.19
2022-10-09T08:24:53.691Z,102516.97
2022-10-09T08:27:20.003Z,102520.13
2022-10-09T08:29:46.517Z,102528.59
2022-10-09T08:32:12.853Z,102528.88
2022-10-09T08:34:39.263Z,102530.59
2022-10-09T08:37:05.639Z,102537.34
2022-10-09T08:39:32.500Z,102534.94
2022-10-09T08:42:03.436Z,102541.16
2022-10-09T08:44:42.871Z,102537.34
2022-10-09T08:47:20.183Z,102537.34
2022-10-09T08:49:55.643Z,102538.72
2022-10-09T08:52:54.176Z,102533.28
2022-10-09T08:55:35.714Z,102538.59
2022-10-09T08:58:04.783Z,102538.88
2022-10-09T09:00:45.394Z,102527.66
2022-10-09T09:03:39.086Z,102530.41
2022-10-09T09:06:16.155Z,102526.94
2022-10-09T09:08:58.880Z,102524.78
2022-10-09T09:11:57.433Z,102525.97
2022-10-09T09:14:39.312Z,102525.06
2022-10-09T09:17:18.938Z,102524.56
2022-10-09T09:20:16.387Z,102526.16
2022-10-09T09:22:48.812Z,102533.16
2022-10-09T09:25:22.872Z,102530.78
2022-10-09T09:27:50.176Z,102526.50
2022-10-09T09:30:34.359Z,102527.66
2022-10-09T09:33:24.722Z,102524.06
2022-10-09T09:36:20.676Z,102535.25
2022-10-09T09:39:32.441Z,102531.91
2022-10-09T09:41:35.846Z,102533.53
2022-10-09T09:44:02.198Z,102532.78
2022-10-09T09:46:32.159Z,102531.38
2022-10-09T09:48:58.796Z,102526.78
2022-10-09T09:51:29.925Z,102518.44
2022-10-09T09:54:06.220Z,102522.94
2022-10-09T09:56:53.221Z,102513.63
2022-10-09T09:59:37.932Z,102509.81
2022-10-09T10:02:14.786Z,102511.41
2022-10-09T10:04:57.554Z,102508.84
2022-10-09T10:07:32.939Z,102499.63
2022-10-09T10:10:25.995Z,102504.69
2022-10-09T10:12:52.701Z,102504.50
2022-10-09T10:15:26.465Z,102498.69
2022-10-09T10:17:58.370Z,102498.81
2022-10-09T10:20:26.099Z,102507.81
2022-10-09T10:22:57.596Z,102497.56
2022-10-09T10:25:31.266Z,102503.19
2022-10-09T10:28:03.776Z,102497.22
2022-10-09T10:30:30.750Z,102505.34
2022-10-09T10:33:21.985Z,102493.75
2022-10-09T10:35:54.099Z,102504.25
2022-10-09T10:38:30.976Z,102499.19
2022-10-09T10:41:13.812Z,102496.66
2022-10-09T10:43:59.970Z,102490.81
2022-10-09T10:46:38.294Z,102488.75
2022-10-09T10:49:08.026Z,102489.84
2022-10-09T10:51:53.941Z,102486.47
2022-10-09T10:54:35.897Z,102486.53
2022-10-09T10:57:20.761Z,102483.47
2022-10-09T11:00:07.284Z,102477.53
2022-10-09T11:02:52.420Z,102472.88
2022-10-09T11:05:30.019Z,102476.19
2022-10-09T11:08:14.186Z,102474.00
2022-10-09T11:11:03.632Z,102465.84
2022-10-09T11:13:34.895Z,102472.88
2022-10-09T11:16:06.586Z,102465.72
2022-10-09T11:18:32.938Z,102457.94
2022-10-09T11:21:29.312Z,102463.53
2022-10-09T11:24:04.162Z,102460.88
2022-10-09T11:26:41.510Z,102453.34
2022-10-09T11:29:19.862Z,102449.78
2022-10-09T11:31:58.963Z,102447.13
2022-10-09T11:34:33.769Z,102445.44
2022-10-09T11:37:02.416Z,102433.34
2022-10-09T11:39:32.379Z,102429.63
2022-10-09T11:42:00.392Z,102437.78
2022-10-09T11:44:53.853Z,102441.00
2022-10-09T11:47:35.040Z,102434.41
2022-10-09T11:50:16.624Z,102435.50
2022-10-09T11:53:00.488Z,102430.50
2022-10-09T11:55:29.689Z,102419.00
2022-10-09T11:58:07.993Z,102418.34
2022-10-09T12:00:36.562Z,102419.00
2022-10-09T12:03:06.148Z,102404.66
2022-10-09T12:05:41.356Z,102400.41
2022-10-09T12:08:15.407Z,102401.41
2022-10-09T12:10:55.091Z,102397.94
2022-10-09T12:13:28.890Z,102394.19
2022-10-09T12:15:57.841Z,102405.13
2022-10-09T12:18:31.803Z,102396.16
2022-10-09T12:21:01.447Z,102390.13
2022-10-09T12:23:31.625Z,102386.38
2022-10-09T12:26:00.376Z,102375.94
2022-10-09T12:28:34.409Z,102375.94
2022-10-09T12:31:03.398Z,102372.78
2022-10-09T12:33:51.452Z,102370.94
2022-10-09T12:36:29.617Z,102362.66
2022-10-09T12:38:56.240Z,102354.94
2022-10-09T12:41:29.762Z,102352.38
2022-10-09T12:43:57.539Z,102354.06
2022-10-09T12:46:36.357Z,102357.53
2022-10-09T12:49:14.120Z,102355.25
2022-10-09T12:51:40.485Z,102347.78
2022-10-09T12:54:09.625Z,102344.22
2022-10-09T12:56:38.275Z,102339.34
2022-10-09T12:59:06.896Z,102334.94
2022-10-09T13:01:34.803Z,102326.78
2022-10-09T13:04:04.472Z,102324.91
2022-10-09T13:06:41.980Z,102315.06
2022-10-09T13:09:19.467Z,102313.63
2022-10-09T13:11:53.464Z,102318.97
2022-10-09T13:14:42.387Z,102319.00
2022-10-09T13:17:29.551Z,102309.28
2022-10-09T13:19:59.270Z,102316.56
2022-10-09T13:22:29.935Z,102310.16
2022-10-09T13:24:58.983Z,102311.66
2022-10-09T13:27:29.115Z,102299.91
2022-10-09T13:29:56.232Z,102305.69
2022-10-09T13:32:24.247Z,102299.94
2022-10-09T13:34:54.993Z,102295.44
2022-10-09T13:37:23.484Z,102289.78
2022-10-09T13:39:57.584Z,102295.19
2022-10-09T13:42:29.975Z,102291.88
2022-10-09T13:44:56.792Z,102282.81
2022-10-09T13:47:24.625Z,102276.34
2022-10-09T13:49:51.226Z,102273.72
2022-10-09T13:52:17.666Z,102272.75
2022-10-09T13:54:44.106Z,102265.25
2022-10-09T13:57:10.449Z,102263.75
2022-10-09T13:59:37.893Z,102262.97
2022-10-09T14:02:04.310Z,102260.25
2022-10-09T14:04:30.734Z,102259.38
2022-10-09T14:06:57.285Z,102251.56
2022-10-09T14:09:23.982Z,102246.69
2022-10-09T14:11:50.300Z,102252.56
2022-10-09T14:14:16.783Z,102241.22
2022-10-09T14:16:43.218Z,102236.06
2022-10-09T14:19:09.992Z,102242.66
2022-10-09T14:21:36.307Z,102239.69
2022-10-09T14:24:03.475Z,102235.25
2022-10-09T14:26:30.455Z,102236.25
2022-10-09T14:28:59.977Z,102224.41
2022-10-09T14:31:26.621Z,102223.59
2022-10-09T14:33:56.727Z,102220.44
2022-10-09T14:36:23.443Z,102213.16
2022-10-09T14:38:49.948Z,102220.16
2022-10-09T14:41:17.906Z,102211.66
2022-10-09T14:43:45.390Z,102203.44
2022-10-09T14:46:17.206Z,102201.28
2022-10-09T14:48:45.494Z,102200.09
2022-10-09T14:51:14.277Z,102198.94
2022-10-09T14:53:40.776Z,102189.69
2022-10-09T14:56:11.989Z,102192.06
2022-10-09T14:58:39.440Z,102184.91
2022-10-09T15:01:06.775Z,102180.44
2022-10-09T15:03:35.331Z,102175.91
2022-10-09T15:06:05.617Z,102177.06
2022-10-09T15:08:33.511Z,102173.34
2022-10-09T15:11:01.479Z,102177.38
2022-10-09T15:13:28.580Z,102166.56
2022-10-09T15:16:21.663Z,102166.13
2022-10-09T15:18:53.119Z,102162.19
2022-10-09T15:21:25.061Z,102165.31
2022-10-09T15:23:54.768Z,102164.59
2022-10-09T15:26:23.261Z,102154.38
2022-10-09T15:28:49.861Z,102154.31
2022-10-09T15:31:22.464Z,102152.41
2022-10-09T15:33:53.049Z,102148.81
2022-10-09T15:36:21.164Z,102141.44
2022-10-09T15:38:48.147Z,102145.91
2022-10-09T15:41:25.528Z,102145.44
2022-10-09T15:43:53.875Z,102140.16
2022-10-09T15:46:20.287Z,102134.06
2022-10-09T15:48:47.076Z,102128.91
2022-10-09T15:51:13.489Z,102132.72
2022-10-09T15:53:45.129Z,102132.53
2022-10-09T15:56:13.843Z,102131.47
2022-10-09T15:58:40.636Z,102125.63
2022-10-09T16:01:09.321Z,102125.28
2022-10-09T16:03:37.238Z,102122.97
2022-10-09T16:06:06.807Z,102118.19
2022-10-09T16:08:34.263Z,102118.38
2022-10-09T16:11:04.228Z,102112.53
2022-10-09T16:13:30.616Z,102107.25
2022-10-09T16:15:56.941Z,102110.13
2022-10-09T16:18:24.455Z,102106.28
2022-10-09T16:20:50.972Z,102104.78
2022-10-09T16:23:18.153Z,102102.16
2022-10-09T16:25:56.992Z,102097.44
2022-10-09T16:28:23.524Z,102093.56
2022-10-09T16:30:49.976Z,102091.63
2022-10-09T16:33:16.335Z,102093.97
2022-10-09T16:35:42.673Z,102099.84
2022-10-09T16:38:09.101Z,102103.56
2022-10-09T16:41:00.876Z,102092.38
2022-10-09T16:43:22.209Z,102095.59
2022-10-09T16:45:48.549Z,102101.09
2022-10-09T16:48:15.088Z,102094.75
2022-10-09T16:50:42.343Z,102095.59
2022-10-09T16:53:09.320Z,102092.25
2022-10-09T16:55:36.186Z,102094.81
2022-10-09T16:58:02.863Z,102093.72
2022-10-09T17:00:29.566Z,102102.19
2022-10-09T17:02:56.667Z,102099.63
2022-10-09T17:05:25.320Z,102102.09
2022-10-09T17:07:52.282Z,102101.78
2022-10-09T17:10:18.810Z,102104.25
2022-10-09T17:12:45.182Z,102105.09
2022-10-09T17:15:12.659Z,102103.16
2022-10-09T17:17:39.599Z,102101.38
2022-10-09T17:20:06.405Z,102092.06
2022-10-09T17:22:32.755Z,102095.66
2022-10-09T17:24:59.089Z,102090.34
2022-10-09T17:27:25.627Z,102089.44
2022-10-09T17:29:52.048Z,102090.94
2022-10-09T17:32:18.449Z,102087.44
2022-10-09T17:34:45.867Z,102088.16
2022-10-09T17:37:12.888Z,102082.09
2022-10-09T17:39:39.309Z,102079.13
2022-10-09T17:42:05.665Z,102072.50
2022-10-09T17:44:32.068Z,102081.13
2022-10-09T17:46:58.452Z,102074.66
2022-10-09T17:49:24.802Z,102074.00
2022-10-09T17:51:52.764Z,102065.47
2022-10-09T17:54:19.105Z,102064.38
2022-10-09T17:56:45.966Z,102071.22
2022-10-09T17:59:12.465Z,102059.19
2022-10-09T18:01:39.216Z,102057.72
2022-10-09T18:04:05.570Z,102052.25
2022-10-09T18:06:33.517Z,102054.69
2022-10-09T18:09:00.958Z,102056.09
2022-10-09T18:11:28.444Z,102057.13
2022-10-09T18:13:54.964Z,102054.88
2022-10-09T18:16:32.693Z,102053.16
2022-10-09T18:19:07.945Z,102053.66
2022-10-09T18:21:35.440Z,102045.44
2022-10-09T18:24:02.236Z,102052.75
2022-10-09T18:26:28.757Z,102046.09
2022-10-09T18:28:55.088Z,102045.63
2022-10-09T18:31:23.847Z,102049.63
2022-10-09T18:33:50.852Z,102040.63
2022-10-09T18:36:19.988Z,102043.03
2022-10-09T18:38:52.405Z,102036.91
2022-10-09T18:41:20.894Z,102041.88
2022-10-09T18:43:47.975Z,102040.09
2022-10-09T18:46:16.132Z,102039.75
2022-10-09T18:48:42.938Z,102032.09
2022-10-09T18:51:15.028Z,102041.25
2022-10-09T18:53:43.416Z,102033.63
2022-10-09T18:56:11.920Z,102023.13
2022-10-09T18:58:41.042Z,102025.84
2022-10-09T19:01:08.048Z,102028.38
2022-10-09T19:03:36.390Z,102021.38
2022-10-09T19:06:04.178Z,102024.69
2022-10-09T19:08:30.490Z,102026.72
2022-10-09T19:10:56.853Z,102018.13
2022-10-09T19:13:23.445Z,102021.88
2022-10-09T19:15:54.640Z,102013.22
2022-10-09T19:18:22.245Z,102023.13
2022-10-09T19:20:49.301Z,102009.09
2022-10-09T19:23:16.801Z,102003.03
2022-10-09T19:25:52.639Z,101997.88
2022-10-09T19:28:19.919Z,101995.84
2022-10-09T19:30:47.228Z,101993.22
2022-10-09T19:33:14.743Z,101987.56
2022-10-09T19:35:48.826Z,101989.22
2022-10-09T19:38:16.037Z,101990.03
2022-10-09T19:40:43.259Z,101983.03
2022-10-09T19:43:10.496Z,101979.94
2022-10-09T19:45:36.834Z,101978.78
2022-10-09T19:48:03.350Z,101978.19
2022-10-09T19:50:30.217Z,101972.66
2022-10-09T19:52:57.383Z,101973.97
2022-10-09T19:55:27.706Z,101970.41
2022-10-09T19:57:58.229Z,101967.94
2022-10-09T20:00:24.788Z,101967.56
2022-10-09T20:02:51.454Z,101959.66
2022-10-09T20:05:18.063Z,101964.88
2022-10-09T20:07:44.731Z,101960.13
2022-10-09T20:10:11.183Z,101963.88
2022-10-09T20:12:37.808Z,101969.72
2022-10-09T20:15:04.491Z,101959.81
2022-10-09T20:17:30.840Z,101965.31
2022-10-09T20:19:57.144Z,101964.66
2022-10-09T20:22:23.818Z,101955.00
2022-10-09T20:24:52.906Z,101958.72
2022-10-09T20:27:19.447Z,101952.66
2022-10-09T20:29:45.762Z,101953.66
2022-10-09T20:32:12.232Z,101948.06
2022-10-09T20:34:38.656Z,101949.91
2022-10-09T20:37:05.056Z,101950.13
2022-10-09T20:39:31.382Z,101951.72
2022-10-09T20:41:57.800Z,101938.88
2022-10-09T20:44:24.115Z,101938.44
2022-10-09T20:46:53.057Z,101943.19
2022-10-09T20:49:19.376Z,101950.28
2022-10-09T20:51:45.728Z,101947.59
2022-10-09T20:54:16.232Z,101938.84
2022-10-09T20:56:44.909Z,101940.03
2022-10-09T20:59:11.759Z,101943.50
2022-10-09T21:01:38.295Z,101945.50
2022-10-09T21:04:05.559Z,101938.59
2022-10-09T21:06:32.737Z,101932.53
2022-10-09T21:08:59.058Z,101934.16
2022-10-09T21:11:25.511Z,101930.88
2022-10-09T21:13:52.033Z,101930.09
2022-10-09T21:16:21.938Z,101926.63
2022-10-09T21:18:52.483Z,101931.41
2022-10-09T21:21:19.295Z,101919.56
2022-10-09T21:23:45.946Z,101927.69
2022-10-09T21:26:14.712Z,101919.75
2022-10-09T21:28:42.003Z,101918.66
2022-10-09T21:31:14.820Z,101923.13
2022-10-09T21:33:41.247Z,101918.28
2022-10-09T21:36:13.050Z,101919.41
2022-10-09T21:38:39.375Z,101909.22
2022-10-09T21:41:05.731Z,101909.97
2022-10-09T21:43:32.069Z,101909.94
2022-10-09T21:45:58.426Z,101906.91
2022-10-09T21:48:24.747Z,101908.31
2022-10-09T21:50:51.395Z,101894.19
2022-10-09T21:53:17.723Z,101896.28
2022-10-09T21:55:44.116Z,101894.13
2022-10-09T21:58:10.675Z,101890.41
2022-10-09T22:00:37.194Z,101879.66
2022-10-09T22:03:03.609Z,101885.13
2022-10-09T22:05:30.014Z,101876.75
2022-10-09T22:07:56.605Z,101882.09
2022-10-09T22:10:23.186Z,101877.78
2022-10-09T22:12:50.666Z,101875.56
2022-10-09T22:15:17.339Z,101869.34
2022-10-09T22:17:43.747Z,101865.44
2022-10-09T22:20:10.267Z,101872.81
2022-10-09T22:22:36.617Z,101866.88
2022-10-09T22:25:03.176Z,101861.06
2022-10-09T22:27:29.492Z,101866.81
2022-10-09T22:29:56.000Z,101860.59
2022-10-09T22:32:22.311Z,101853.97
2022-10-09T22:34:50.893Z,101854.31
2022-10-09T22:37:17.255Z,101853.84
2022-10-09T22:39:43.838Z,101846.16
2022-10-09T22:42:10.156Z,101848.28
2022-10-09T22:44:36.510Z,101841.66
2022-10-09T22:47:02.851Z,101842.91
2022-10-09T22:49:29.212Z,101839.00
2022-10-09T22:51:55.569Z,101834.00
2022-10-09T22:54:22.146Z,101833.06
2022-10-09T22:56:48.522Z,101824.50
2022-10-09T22:59:18.191Z,101828.69
2022-10-09T23:01:54.560Z,101825.31
2022-10-09T23:04:22.089Z,101817.22
2022-10-09T23:06:54.752Z,101816.81
2022-10-09T23:09:23.061Z,101809.78
2022-10-09T23:11:49.603Z,101814.00
2022-10-09T23:14:16.334Z,101805.06
2022-10-09T23:16:42.969Z,101802.38
2022-10-09T23:19:10.210Z,101797.56
2022-10-09T23:21:38.426Z,101796.19
2022-10-09T23:24:06.302Z,101790.78
2022-10-09T23:26:33.893Z,101792.22
2022-10-09T23:29:03.586Z,101783.16
2022-10-09T23:31:30.206Z,101785.22
2022-10-09T23:33:57.408Z,101781.44
2022-10-09T23:36:26.839Z,101773.53
2022-10-09T23:38:53.723Z,101770.78
2022-10-09T23:41:22.675Z,101765.59
2022-10-09T23:43:49.686Z,101764.56
2022-10-09T23:46:22.116Z,101759.91
2022-10-09T23:48:50.256Z,101763.34
2022-10-09T23:51:19.113Z,101759.25
2022-10-09T23:53:45.943Z,101754.84
2022-10-09T23:56:18.167Z,101757.13
2022-10-09T23:58:45.481Z,101751.13
